Time;durP1;ratioP1;P1;durP2;ratioP2;P2;SDS_P1;SDS_P2;PMS_P1;PMS_P2;Temp;Humidity;BMP_temperature;BMP_pressure;BME280_temperature;BME280_humidity;BME280_pressure;Samples;Min_cycle;Max_cycle;Signal;HPM_P1;HPM_P2
2023/06/28 00:02:00;;;;;;;7.47;6.65;;;;;;;18.40;100.00;99317.64;1756415;82;21035;-65
2023/06/28 00:04:28;;;;;;;8.13;6.35;;;;;;;18.41;100.00;99311.81;1756132;82;21054;-65
2023/06/28 00:06:57;;;;;;;8.90;6.65;;;;;;;18.40;100.00;99304.60;1756323;82;21039;-68
2023/06/28 00:09:27;;;;;;;8.73;5.97;;;;;;;18.39;100.00;99302.94;1756201;82;21084;-65
2023/06/28 00:11:58;;;;;;;7.72;5.85;;;;;;;18.39;100.00;99314.03;1756325;82;21034;-65
2023/06/28 00:14:26;;;;;;;8.23;6.50;;;;;;;18.36;100.00;99320.13;1756275;82;21019;-64
2023/06/28 00:16:55;;;;;;;6.92;6.22;;;;;;;18.32;100.00;99321.23;1755938;82;21062;-65
2023/06/28 00:19:26;;;;;;;7.37;6.30;;;;;;;18.32;100.00;99314.30;1756053;82;21486;-66
2023/06/28 00:21:58;;;;;;;9.95;5.78;;;;;;;18.32;100.00;99312.08;1760476;81;21026;-64
2023/06/28 00:24:27;;;;;;;9.48;5.25;;;;;;;18.31;100.00;99319.56;1762710;81;21039;-64
2023/06/28 00:26:56;;;;;;;5.78;5.17;;;;;;;18.32;100.00;99320.41;1764191;81;20986;-65
2023/06/28 00:29:25;;;;;;;6.72;5.53;;;;;;;18.29;100.00;99318.17;1763621;81;21051;-65
2023/06/28 00:31:54;;;;;;;7.28;4.78;;;;;;;18.26;100.00;99320.95;1761794;81;21034;-65
2023/06/28 00:34:24;;;;;;;6.95;5.20;;;;;;;18.27;100.00;99319.84;1761890;81;21090;-64
2023/06/28 00:36:54;;;;;;;7.35;5.45;;;;;;;18.23;100.00;99324.82;1761913;81;21178;-64
2023/06/28 00:39:23;;;;;;;6.78;4.60;;;;;;;18.23;100.00;99321.49;1761969;81;21026;-65
2023/06/28 00:41:53;;;;;;;8.45;4.95;;;;;;;18.23;100.00;99318.72;1761847;81;21018;-64
2023/06/28 00:44:22;;;;;;;7.42;5.00;;;;;;;18.25;100.00;99319.83;1761729;81;21002;-64
2023/06/28 00:46:51;;;;;;;10.03;4.87;;;;;;;18.26;100.00;99318.73;1761687;81;21038;-65
2023/06/28 00:49:28;;;;;;;8.45;4.85;;;;;;;18.27;100.00;99310.13;1761695;81;21117;-65
2023/06/28 00:51:58;;;;;;;6.90;4.67;;;;;;;18.27;99.95;99313.46;1761839;81;21454;-64
2023/06/28 00:54:29;;;;;;;6.47;5.17;;;;;;;18.29;99.64;99311.25;1761705;81;21093;-64
2023/06/28 00:56:59;;;;;;;5.55;4.53;;;;;;;18.30;99.46;99308.20;1761540;81;21516;-65
2023/06/28 00:59:29;;;;;;;6.47;4.42;;;;;;;18.30;99.07;99298.48;1761871;81;21077;-65
2023/06/28 01:01:58;;;;;;;7.35;4.15;;;;;;;18.29;98.55;99297.38;1761750;81;21042;-65
2023/06/28 01:04:26;;;;;;;4.92;3.92;;;;;;;18.28;97.91;99298.48;1761691;81;21078;-64
2023/06/28 01:06:55;;;;;;;9.90;4.22;;;;;;;18.28;97.69;99294.33;1761879;81;21030;-65
2023/06/28 01:09:24;;;;;;;5.78;3.95;;;;;;;18.26;97.28;99298.77;1761888;81;21022;-65
2023/06/28 01:11:54;;;;;;;5.90;3.90;;;;;;;18.25;96.64;99292.94;1761795;81;20990;-65
2023/06/28 01:14:24;;;;;;;6.05;4.00;;;;;;;18.23;96.31;99293.77;1733139;81;21066;-64
2023/06/28 01:16:56;;;;;;;6.65;3.58;;;;;;;18.20;96.04;99299.00;1734841;81;21070;-64
2023/06/28 01:19:26;;;;;;;4.17;3.58;;;;;;;18.16;95.66;99295.94;1761726;81;21070;-63
2023/06/28 01:21:59;;;;;;;5.25;3.55;;;;;;;18.12;95.59;99300.37;1761793;81;21097;-63
2023/06/28 01:24:28;;;;;;;4.92;3.60;;;;;;;18.10;95.17;99307.30;1761872;81;21025;-63
2023/06/28 01:26:58;;;;;;;7.08;3.72;;;;;;;18.08;94.97;99306.19;1761773;81;21076;-64
2023/06/28 01:29:29;;;;;;;5.72;3.83;;;;;;;18.05;94.83;99304.80;1761942;81;21131;-64
2023/06/28 01:31:59;;;;;;;5.58;3.35;;;;;;;18.01;94.46;99306.45;1761577;81;21517;-64
2023/06/28 01:34:29;;;;;;;4.35;3.50;;;;;;;17.98;94.19;99311.70;1762032;81;21054;-66
2023/06/28 01:37:00;;;;;;;5.20;3.98;;;;;;;17.96;94.16;99309.75;1761782;81;21016;-63
2023/06/28 01:39:30;;;;;;;7.25;3.67;;;;;;;17.95;94.41;99299.77;1761802;81;21101;-63
2023/06/28 01:41:59;;;;;;;7.47;3.98;;;;;;;17.95;94.24;99307.53;1762045;81;21078;-64
2023/06/28 01:44:29;;;;;;;6.85;3.50;;;;;;;17.91;94.15;99312.52;1762078;81;21014;-65
2023/06/28 01:46:57;;;;;;;4.78;3.55;;;;;;;17.90;94.39;99306.13;1761998;81;21026;-66
2023/06/28 01:49:27;;;;;;;6.60;3.92;;;;;;;17.90;94.35;99299.77;1761786;81;20998;-64
2023/06/28 01:51:56;;;;;;;4.95;3.70;;;;;;;17.86;94.44;99296.70;1761817;81;21042;-64
2023/06/28 01:54:27;;;;;;;5.37;3.60;;;;;;;17.86;94.64;99305.02;1761487;81;21015;-64
2023/06/28 01:56:56;;;;;;;6.75;3.83;;;;;;;17.88;94.92;99308.34;1761698;81;21121;-64
2023/06/28 01:59:24;;;;;;;7.55;3.85;;;;;;;17.85;94.80;99301.96;1761819;81;21026;-62
2023/06/28 02:01:53;;;;;;;4.40;3.80;;;;;;;17.84;94.78;99298.91;1761909;81;21085;-63
2023/06/28 02:04:22;;;;;;;9.70;4.28;;;;;;;17.84;94.80;99301.69;1761945;81;21038;-64
2023/06/28 02:06:50;;;;;;;4.95;3.60;;;;;;;17.83;94.91;99297.25;1761773;81;21514;-64
2023/06/28 02:09:19;;;;;;;7.87;3.77;;;;;;;17.87;94.72;99301.69;1761920;81;21038;-65
2023/06/28 02:11:48;;;;;;;6.15;3.52;;;;;;;17.83;94.38;99297.25;1761868;81;21054;-64
2023/06/28 02:14:18;;;;;;;6.92;4.22;;;;;;;17.82;94.17;99309.98;1761868;81;21116;-65
2023/06/28 02:16:47;;;;;;;7.67;5.00;;;;;;;17.78;93.84;99306.92;1761794;81;21027;-64
2023/06/28 02:19:16;;;;;;;6.87;4.65;;;;;;;17.73;93.53;99311.06;1761877;81;21027;-64
2023/06/28 02:21:46;;;;;;;7.12;5.00;;;;;;;17.70;93.24;99314.37;1761693;81;21502;-65
2023/06/28 02:24:15;;;;;;;8.18;5.20;;;;;;;17.67;93.03;99317.69;1761775;81;21042;-65
2023/06/28 02:26:44;;;;;;;11.10;5.60;;;;;;;17.65;92.83;99319.86;1761873;81;21058;-63
2023/06/28 02:29:15;;;;;;;13.95;6.30;;;;;;;17.64;92.65;99314.05;1761909;81;21015;-65
2023/06/28 02:31:44;;;;;;;8.73;5.80;;;;;;;17.60;92.43;99318.45;1761840;81;20998;-64
2023/06/28 02:34:13;;;;;;;9.60;5.75;;;;;;;17.58;92.41;99322.05;1761869;81;21101;-64
2023/06/28 02:36:41;;;;;;;9.43;5.58;;;;;;;17.60;92.27;99328.15;1761738;81;21061;-65
2023/06/28 02:39:10;;;;;;;13.20;5.58;;;;;;;17.58;91.66;99319.28;1761747;81;21018;-63
2023/06/28 02:41:40;;;;;;;9.05;4.97;;;;;;;17.58;91.80;99327.03;1761874;81;21058;-63
2023/06/28 02:44:09;;;;;;;6.33;4.40;;;;;;;17.58;91.84;99335.34;1761629;81;21113;-64
2023/06/28 02:46:39;;;;;;;11.63;4.33;;;;;;;17.58;91.54;99326.20;1761756;81;21528;-63
2023/06/28 02:49:08;;;;;;;6.87;3.90;;;;;;;17.60;91.41;99336.46;1761912;81;21313;-64
2023/06/28 02:51:38;;;;;;;9.48;3.85;;;;;;;17.58;90.90;99338.67;1761815;81;21010;-64
2023/06/28 02:54:09;;;;;;;5.45;3.92;;;;;;;17.56;90.57;99336.17;1761738;81;21074;-64
2023/06/28 02:56:37;;;;;;;7.90;4.12;;;;;;;17.54;90.18;99329.20;1761916;81;21034;-63
2023/06/28 02:59:16;;;;;;;5.85;4.37;;;;;;;17.53;89.83;99331.69;1762011;81;21046;-63
2023/06/28 03:01:45;;;;;;;8.38;4.25;;;;;;;17.52;89.77;99326.70;1761681;81;21046;-64
2023/06/28 03:04:15;;;;;;;5.70;3.72;;;;;;;17.52;89.67;99323.09;1761884;81;21438;-63
2023/06/28 03:06:51;;;;;;;6.12;3.80;;;;;;;17.53;89.70;99331.13;1761519;81;21458;-63
2023/06/28 03:09:20;;;;;;;10.30;3.90;;;;;;;17.53;89.53;99324.77;1761953;81;21512;-65
2023/06/28 03:11:50;;;;;;;8.85;4.00;;;;;;;17.54;89.68;99331.97;1761954;81;21062;-65
2023/06/28 03:14:19;;;;;;;7.03;3.60;;;;;;;17.54;89.60;99352.19;1761953;81;21046;-64
2023/06/28 03:16:48;;;;;;;6.47;3.92;;;;;;;17.57;88.93;99352.23;1761719;81;21058;-64
2023/06/28 03:19:17;;;;;;;11.80;4.78;;;;;;;17.56;88.57;99346.41;1761991;81;21054;-64
2023/06/28 03:21:46;;;;;;;6.95;4.35;;;;;;;17.53;88.11;99343.59;1761746;81;21030;-75
2023/06/28 03:24:17;;;;;;;7.12;4.72;;;;;;;17.55;87.75;99347.48;1761760;81;21078;-64
2023/06/28 03:26:47;;;;;;;9.23;4.25;;;;;;;17.55;87.52;99350.25;1761991;81;21066;-65
2023/06/28 03:29:15;;;;;;;7.55;4.03;;;;;;;17.57;87.35;99343.92;1734443;81;21042;-64
2023/06/28 03:31:44;;;;;;;6.33;3.77;;;;;;;17.56;86.73;99340.32;1761747;81;21007;-63
2023/06/28 03:34:13;;;;;;;10.35;3.60;;;;;;;17.57;86.41;99346.70;1761714;81;21030;-64
2023/06/28 03:36:44;;;;;;;7.15;3.50;;;;;;;17.55;86.12;99353.02;1761723;81;21084;-64
2023/06/28 03:39:18;;;;;;;12.10;3.90;;;;;;;17.52;85.59;99343.87;1758258;81;21113;-65
2023/06/28 03:41:46;;;;;;;9.73;3.87;;;;;;;17.55;85.54;99357.17;1761661;81;21043;-63
2023/06/28 03:44:15;;;;;;;8.03;3.52;;;;;;;17.56;84.62;99356.94;1762015;81;21050;-63
2023/06/28 03:46:44;;;;;;;10.63;4.00;;;;;;;17.55;84.13;99355.80;1761743;81;21031;-64
2023/06/28 03:49:14;;;;;;;10.28;4.42;;;;;;;17.57;84.20;99358.61;1761838;81;21027;-64
2023/06/28 03:51:43;;;;;;;11.93;4.00;;;;;;;17.58;83.35;99352.52;1762011;81;21154;-63
2023/06/28 03:54:13;;;;;;;13.40;4.08;;;;;;;17.55;83.26;99356.62;1761937;81;21030;-64
2023/06/28 03:56:43;;;;;;;11.38;4.50;;;;;;;17.58;83.27;99364.43;1762235;81;21446;-64
2023/06/28 03:59:13;;;;;;;9.48;4.40;;;;;;;17.56;83.11;99355.55;1763115;81;21061;-64
2023/06/28 04:01:42;;;;;;;10.55;4.08;;;;;;;17.56;82.93;99363.03;1763479;81;21015;-63
2023/06/28 04:04:13;;;;;;;9.93;3.98;;;;;;;17.54;82.04;99350.80;1763703;81;21716;-64
2023/06/28 04:06:42;;;;;;;9.73;4.15;;;;;;;17.52;82.03;99355.78;1762989;81;21030;-65
2023/06/28 04:09:11;;;;;;;11.03;4.50;;;;;;;17.54;82.06;99349.97;1762029;81;20994;-64
2023/06/28 04:11:41;;;;;;;12.35;4.30;;;;;;;17.55;82.08;99341.95;1761752;81;21003;-64
2023/06/28 04:14:10;;;;;;;13.93;4.83;;;;;;;17.55;82.17;99347.48;1761914;81;21440;-64
2023/06/28 04:16:40;;;;;;;11.30;4.22;;;;;;;17.58;82.22;99344.20;1761839;81;21105;-64
2023/06/28 04:19:11;;;;;;;13.18;4.58;;;;;;;17.59;81.93;99345.33;1761870;81;21042;-64
2023/06/28 04:21:40;;;;;;;10.40;4.42;;;;;;;17.62;81.72;99342.02;1761936;81;21480;-62
2023/06/28 04:24:09;;;;;;;11.90;4.10;;;;;;;17.63;81.33;99347.00;1761324;81;21091;-64
2023/06/28 04:26:37;;;;;;;9.55;4.40;;;;;;;17.65;81.00;99342.03;1761913;81;21010;-65
2023/06/28 04:29:06;;;;;;;10.65;4.65;;;;;;;17.73;80.95;99346.53;1761623;81;21011;-64
2023/06/28 04:31:35;;;;;;;10.20;4.97;;;;;;;17.84;81.05;99340.48;1761722;81;21022;-65
2023/06/28 04:34:05;;;;;;;13.30;4.70;;;;;;;17.95;80.58;99344.12;1761776;81;21034;-64
2023/06/28 04:36:34;;;;;;;12.30;4.12;;;;;;;18.03;80.32;99354.13;1761782;81;21074;-64
2023/06/28 04:39:07;;;;;;;5.95;3.50;;;;;;;18.12;79.59;99357.20;1761690;81;21027;-65
2023/06/28 04:41:36;;;;;;;8.68;3.40;;;;;;;18.15;78.44;99351.66;1761737;81;21475;-65
2023/06/28 04:44:09;;;;;;;8.83;3.37;;;;;;;18.16;77.40;99357.48;1761634;81;21030;-65
2023/06/28 04:46:35;;;;;;;6.87;3.27;;;;;;;18.15;76.52;99354.44;1761715;81;21105;-64
2023/06/28 04:49:03;;;;;;;6.35;3.08;;;;;;;18.09;76.12;99354.14;1761805;81;20999;-66
2023/06/28 04:51:34;;;;;;;9.33;3.50;;;;;;;18.08;76.43;99356.63;1761879;81;21019;-64
2023/06/28 04:54:02;;;;;;;5.85;2.52;;;;;;;18.06;76.42;99364.67;1761858;81;21069;-63
2023/06/28 04:56:32;;;;;;;7.15;2.85;;;;;;;18.06;75.97;99365.22;1761733;81;21066;-65
2023/06/28 04:59:01;;;;;;;5.33;2.60;;;;;;;18.06;75.31;99369.37;1761789;81;21058;-65
2023/06/28 05:01:30;;;;;;;6.33;2.12;;;;;;;18.03;74.39;99362.44;1761881;81;21042;-65
2023/06/28 05:03:59;;;;;;;2.85;2.30;;;;;;;18.04;74.56;99361.89;1761910;81;21086;-64
2023/06/28 05:06:28;;;;;;;5.80;2.12;;;;;;;18.16;74.24;99371.35;1761935;81;21108;-65
2023/06/28 05:08:57;;;;;;;6.65;2.45;;;;;;;18.34;74.21;99362.56;1761959;81;21015;-65
2023/06/28 05:11:27;;;;;;;5.97;2.95;;;;;;;18.52;72.49;99362.59;1762000;81;21478;-67
2023/06/28 05:13:56;;;;;;;8.00;2.77;;;;;;;18.72;71.94;99368.19;1761897;81;21023;-63
2023/06/28 05:16:24;;;;;;;9.40;5.78;;;;;;;18.93;70.63;99369.06;1761874;81;21050;-65
2023/06/28 05:18:53;;;;;;;5.15;2.50;;;;;;;19.10;70.75;99372.95;1761572;81;21026;-67
2023/06/28 05:21:22;;;;;;;5.97;2.60;;;;;;;19.33;68.72;99371.80;1761931;81;20986;-67
2023/06/28 05:23:52;;;;;;;5.83;2.40;;;;;;;19.52;67.81;99355.95;1757847;81;21062;-65
2023/06/28 05:26:21;;;;;;;6.08;2.33;;;;;;;19.66;67.10;99369.56;1756338;81;20986;-66
2023/06/28 05:28:50;;;;;;;6.37;2.10;;;;;;;19.73;64.66;99367.87;1756182;82;21540;-64
2023/06/28 05:31:18;;;;;;;3.83;2.20;;;;;;;19.65;64.27;99363.73;1756247;82;20987;-64
2023/06/28 05:33:47;;;;;;;5.10;2.20;;;;;;;19.61;64.78;99370.41;1756052;82;21451;-69
2023/06/28 05:36:18;;;;;;;2.42;1.90;;;;;;;19.57;64.54;99362.92;1756244;82;21019;-65
2023/06/28 05:38:46;;;;;;;6.17;2.02;;;;;;;19.53;64.98;99366.83;1756373;82;21023;-64
2023/06/28 05:41:16;;;;;;;3.08;1.92;;;;;;;19.54;64.54;99369.88;1756237;81;21015;-66
2023/06/28 05:43:46;;;;;;;3.25;1.87;;;;;;;19.58;64.89;99376.53;1756299;82;21126;-66
2023/06/28 05:46:15;;;;;;;2.83;2.00;;;;;;;19.72;64.72;99372.60;1756240;82;21085;-66
2023/06/28 05:48:45;;;;;;;4.90;1.77;;;;;;;19.85;64.50;99373.39;1756141;81;21073;-67
2023/06/28 05:51:14;;;;;;;3.85;2.45;;;;;;;19.95;63.94;99374.73;1756143;82;20999;-66
2023/06/28 05:53:43;;;;;;;3.95;2.30;;;;;;;19.95;62.98;99385.03;1756283;82;21155;-65
2023/06/28 05:56:11;;;;;;;2.62;1.87;;;;;;;19.86;63.16;99380.61;1756039;82;21081;-64
2023/06/28 05:58:40;;;;;;;3.22;2.10;;;;;;;19.81;62.46;99387.58;1756272;81;21031;-66
2023/06/28 06:01:10;;;;;;;5.53;1.90;;;;;;;19.73;61.25;99392.33;1756090;81;21090;-66
2023/06/28 06:03:39;;;;;;;6.22;2.10;;;;;;;19.62;61.88;99389.31;1756275;82;21035;-67
2023/06/28 06:06:09;;;;;;;3.50;2.00;;;;;;;19.69;62.35;99387.06;1756101;81;21520;-66
2023/06/28 06:08:37;;;;;;;2.92;1.72;;;;;;;19.94;62.05;99385.59;1756316;81;21058;-66
2023/06/28 06:11:06;;;;;;;3.12;1.70;;;;;;;20.13;61.26;99389.13;1756443;81;21030;-66
2023/06/28 06:13:34;;;;;;;5.17;1.77;;;;;;;20.30;60.22;99388.80;1756289;82;21046;-66
2023/06/28 06:16:04;;;;;;;6.90;1.80;;;;;;;20.45;59.18;99389.57;1756181;82;21015;-65
2023/06/28 06:18:36;;;;;;;6.15;1.95;;;;;;;20.70;58.18;99396.92;1727267;82;21078;-67
2023/06/28 06:21:03;;;;;;;2.17;1.60;;;;;;;20.93;57.03;99392.61;1756105;82;21080;-67
2023/06/28 06:23:31;;;;;;;3.85;1.80;;;;;;;21.09;55.37;99390.53;1758206;81;21086;-66
2023/06/28 06:26:00;;;;;;;3.60;1.75;;;;;;;21.28;54.32;99393.45;1761851;81;21065;-67
2023/06/28 06:28:31;;;;;;;2.37;1.57;;;;;;;21.36;53.66;99386.69;1761709;81;21123;-66
2023/06/28 06:30:59;;;;;;;2.52;1.80;;;;;;;21.36;53.48;99392.83;1761945;81;21053;-65
2023/06/28 06:33:30;;;;;;;3.77;1.87;;;;;;;21.40;53.92;99400.30;1762019;81;21090;-68
2023/06/28 06:35:59;;;;;;;2.98;1.60;;;;;;;21.58;53.77;99391.79;1761711;81;21054;-67
2023/06/28 06:38:27;;;;;;;1.77;1.40;;;;;;;21.77;52.73;99393.26;1761720;81;21030;-66
2023/06/28 06:40:57;;;;;;;2.58;1.60;;;;;;;21.89;52.88;99391.45;1761770;81;21055;-67
2023/06/28 06:43:26;;;;;;;3.55;1.62;;;;;;;22.13;51.85;99390.38;1761761;81;21089;-67
2023/06/28 06:45:55;;;;;;;1.50;1.30;;;;;;;22.30;51.30;99402.99;1761880;81;21011;-68
2023/06/28 06:48:24;;;;;;;2.08;1.62;;;;;;;22.40;50.49;99405.08;1761551;81;21077;-67
2023/06/28 06:50:52;;;;;;;2.12;1.70;;;;;;;22.56;50.12;99409.05;1761605;81;21019;-66
2023/06/28 06:53:23;;;;;;;5.78;2.00;;;;;;;22.78;49.46;99412.11;1761813;81;21023;-66
2023/06/28 06:55:52;;;;;;;4.22;1.80;;;;;;;22.90;48.39;99411.69;1761886;81;21010;-66
2023/06/28 06:58:23;;;;;;;10.10;2.95;;;;;;;22.85;48.01;99412.59;1761831;81;21042;-67
2023/06/28 07:00:52;;;;;;;15.50;3.33;;;;;;;22.88;48.51;99411.98;1761924;81;21034;-67
2023/06/28 07:03:21;;;;;;;4.45;2.12;;;;;;;23.05;48.44;99407.25;1761869;81;21038;-66
2023/06/28 07:05:50;;;;;;;2.47;1.87;;;;;;;23.22;47.03;99408.91;1761784;81;21044;-67
2023/06/28 07:08:19;;;;;;;3.58;1.70;;;;;;;23.23;46.86;99420.92;1761939;81;21019;-66
2023/06/28 07:10:48;;;;;;;3.55;1.50;;;;;;;23.16;46.99;99421.88;1762119;81;21027;-68
2023/06/28 07:13:18;;;;;;;1.60;1.50;;;;;;;23.01;47.81;99418.77;1761943;81;20998;-67
2023/06/28 07:15:47;;;;;;;2.12;1.40;;;;;;;22.89;47.81;99423.98;1761637;81;21122;-68
2023/06/28 07:18:16;;;;;;;1.87;1.30;;;;;;;22.73;48.21;99428.91;1761903;81;21058;-68
2023/06/28 07:20:45;;;;;;;2.65;1.70;;;;;;;22.70;47.60;99420.56;1761897;81;21027;-67
2023/06/28 07:23:14;;;;;;;6.60;1.57;;;;;;;22.78;47.57;99426.08;1761175;81;21124;-67
2023/06/28 07:25:42;;;;;;;2.27;1.47;;;;;;;23.02;46.97;99428.24;1756308;80;21062;-67
2023/06/28 07:28:11;;;;;;;4.28;1.50;;;;;;;23.26;46.63;99435.69;1756337;81;21071;-65
2023/06/28 07:30:54;;;;;;;3.58;1.20;;;;;;;23.37;45.74;99419.83;1757672;82;21094;-64
2023/06/28 07:33:23;;;;;;;1.80;1.40;;;;;;;23.39;45.78;99416.73;1758340;82;21021;-66
2023/06/28 07:35:52;;;;;;;2.75;1.52;;;;;;;23.52;45.38;99410.94;1758462;81;21491;-67
2023/06/28 07:38:22;;;;;;;2.50;1.47;;;;;;;23.64;44.96;99423.33;1758031;82;21065;-66
2023/06/28 07:40:53;;;;;;;2.12;1.20;;;;;;;23.78;44.70;99426.14;1756333;82;21655;-66
2023/06/28 07:43:21;;;;;;;2.90;1.57;;;;;;;23.97;44.07;99433.05;1756238;82;21018;-65
2023/06/28 07:45:51;;;;;;;3.55;1.65;;;;;;;23.97;43.76;99434.45;1756233;82;21026;-66
2023/06/28 07:48:21;;;;;;;1.65;1.40;;;;;;;23.90;44.19;99425.06;1722306;82;21038;-66
2023/06/28 07:50:50;;;;;;;2.10;1.30;;;;;;;23.82;43.94;99429.98;1756158;82;21483;-65
2023/06/28 07:53:18;;;;;;;11.08;2.80;;;;;;;23.52;44.15;99419.33;1756252;82;21026;-67
2023/06/28 07:55:47;;;;;;;13.18;3.27;;;;;;;23.25;45.28;99427.87;1755422;82;21010;-75
2023/06/28 07:58:16;;;;;;;6.47;1.87;;;;;;;23.03;44.75;99421.52;1745731;80;21141;-64
2023/06/28 08:00:44;;;;;;;15.63;3.05;;;;;;;22.66;45.71;99417.28;1732889;80;21034;-68
2023/06/28 08:03:13;;;;;;;4.42;1.80;;;;;;;22.48;46.84;99418.94;1751774;82;21042;-67
2023/06/28 08:05:44;;;;;;;7.28;1.90;;;;;;;22.74;47.09;99423.02;1749552;82;21148;-67
2023/06/28 08:08:13;;;;;;;2.10;1.47;;;;;;;23.06;45.84;99407.51;1728583;83;21509;-70
2023/06/28 08:10:42;;;;;;;5.67;1.70;;;;;;;23.10;44.21;99419.73;1789284;80;21069;-68
2023/06/28 08:13:10;;;;;;;6.78;2.40;;;;;;;22.99;44.90;99412.09;1789947;80;21114;-68
2023/06/28 08:15:39;;;;;;;4.17;1.67;;;;;;;23.01;45.25;99419.59;1754784;80;21041;-65
2023/06/28 08:18:09;;;;;;;4.05;1.42;;;;;;;22.99;45.10;99424.66;1744015;82;21045;-67
2023/06/28 08:20:40;;;;;;;2.90;1.60;;;;;;;23.03;45.36;99422.92;1743705;82;21100;-67
2023/06/28 08:23:11;;;;;;;6.03;1.75;;;;;;;23.29;44.71;99421.09;1743806;82;21079;-68
2023/06/28 08:25:40;;;;;;;4.17;1.92;;;;;;;23.61;44.57;99426.73;1743625;81;21080;-64
2023/06/28 08:28:10;;;;;;;2.45;1.50;;;;;;;23.98;42.45;99429.95;1744083;82;21052;-68
2023/06/28 08:30:40;;;;;;;2.77;1.40;;;;;;;24.24;41.71;99418.27;1743809;81;21064;-70
2023/06/28 08:33:09;;;;;;;3.35;1.92;;;;;;;24.30;41.59;99421.24;1734320;82;21035;-66
2023/06/28 08:35:39;;;;;;;3.37;1.60;;;;;;;24.21;41.42;99411.31;1733822;83;21596;-69
2023/06/28 08:38:08;;;;;;;2.47;1.40;;;;;;;24.26;41.80;99422.41;1734011;83;21042;-66
2023/06/28 08:40:37;;;;;;;6.37;1.90;;;;;;;24.52;40.40;99415.72;1733508;83;21125;-71
2023/06/28 08:43:06;;;;;;;3.02;1.67;;;;;;;24.72;40.21;99422.03;1733735;83;21038;-69
2023/06/28 08:45:36;;;;;;;5.40;2.15;;;;;;;24.93;39.83;99411.43;1733784;83;21443;-70
2023/06/28 08:48:06;;;;;;;5.03;1.40;;;;;;;25.12;39.54;99413.25;1726942;83;21046;-68
2023/06/28 08:50:38;;;;;;;2.00;1.35;;;;;;;25.23;38.37;99417.47;1700860;83;21538;-70
2023/06/28 08:53:09;;;;;;;4.00;1.40;;;;;;;25.36;37.57;99405.92;1733780;83;21063;-67
2023/06/28 08:55:39;;;;;;;4.00;1.10;;;;;;;25.45;37.38;99409.64;1733781;83;21034;-67
2023/06/28 08:58:09;;;;;;;4.80;1.40;;;;;;;25.40;37.87;99413.98;1733996;83;21495;-67
2023/06/28 09:00:41;;;;;;;6.25;1.60;;;;;;;25.38;38.69;99406.46;1733666;83;21082;-69
2023/06/28 09:03:10;;;;;;;4.20;1.42;;;;;;;25.42;38.39;99404.67;1733997;83;21011;-67
2023/06/28 09:05:39;;;;;;;5.08;1.50;;;;;;;25.39;38.70;99419.33;1732338;83;21040;-69
2023/06/28 09:08:09;;;;;;;8.78;1.40;;;;;;;25.45;37.02;99409.64;1728524;81;21045;-67
2023/06/28 09:10:39;;;;;;;3.92;1.32;;;;;;;25.31;36.77;99407.45;1728609;83;21036;-66
2023/06/28 09:13:08;;;;;;;2.45;1.20;;;;;;;25.11;36.76;99408.80;1728497;83;21056;-67
2023/06/28 09:15:38;;;;;;;5.75;1.50;;;;;;;24.92;37.32;99413.98;1734159;82;21051;-67
2023/06/28 09:18:07;;;;;;;3.87;1.10;;;;;;;24.67;37.42;99404.73;1716160;83;21065;-66
2023/06/28 09:20:37;;;;;;;6.15;1.30;;;;;;;24.26;38.04;99405.61;1728256;83;21107;-67
2023/06/28 09:23:06;;;;;;;4.67;1.30;;;;;;;24.02;38.14;99404.97;1728624;83;21451;-67
2023/06/28 09:25:35;;;;;;;2.83;1.10;;;;;;;23.90;38.51;99389.27;1730296;82;21052;-66
2023/06/28 09:28:05;;;;;;;4.03;1.42;;;;;;;23.88;38.11;99402.73;1731515;81;21048;-67
2023/06/28 09:30:53;;;;;;;3.42;1.10;;;;;;;23.81;38.19;99405.94;1709082;83;21097;-67
2023/06/28 09:33:23;;;;;;;3.05;1.10;;;;;;;23.88;37.80;99399.94;1731411;81;21016;-69
2023/06/28 09:35:55;;;;;;;10.88;2.83;;;;;;;23.92;38.12;99397.61;1731565;81;21012;-67
2023/06/28 09:38:24;;;;;;;4.00;1.30;;;;;;;23.99;37.89;99405.59;1731503;81;21048;-67
2023/06/28 09:41:00;;;;;;;3.50;1.00;;;;;;;24.07;37.72;99397.90;1731689;83;22072;-66
2023/06/28 09:43:37;;;;;;;2.93;1.20;;;;;;;24.11;36.59;99397.53;1731934;83;21167;-67
2023/06/28 09:46:15;;;;;;;3.52;1.20;;;;;;;24.10;36.39;99400.07;1731381;81;21100;-67
2023/06/28 09:48:49;;;;;;;4.10;1.30;;;;;;;24.10;36.89;99388.88;1731557;83;21747;-66
2023/06/28 09:51:18;;;;;;;6.62;1.37;;;;;;;24.13;37.03;99397.22;1731285;83;21329;-66
2023/06/28 09:53:56;;;;;;;1.37;0.90;;;;;;;24.05;36.92;99393.15;1731647;83;21115;-66
2023/06/28 09:56:34;;;;;;;;;;;;;;;23.98;36.62;99409.52;1733794;81;21043;-66
2023/06/28 09:59:06;;;;;;;4.28;1.37;;;;;;;23.87;36.92;99415.06;1731384;81;20195;-67
2023/06/28 10:01:39;;;;;;;2.67;1.17;;;;;;;23.70;36.87;99419.30;1731461;83;21032;-67
2023/06/28 10:04:09;;;;;;;6.75;1.50;;;;;;;23.50;36.90;99415.44;1698801;83;21044;-66
2023/06/28 10:06:39;;;;;;;25.17;4.53;;;;;;;23.34;36.88;99425.20;1704543;83;21683;-69
2023/06/28 10:09:08;;;;;;;7.50;1.42;;;;;;;23.19;37.00;99413.72;1711302;82;21005;-68
2023/06/28 10:11:38;;;;;;;6.47;1.50;;;;;;;23.11;37.87;99408.83;1711442;84;21053;-67
2023/06/28 10:14:07;;;;;;;3.45;1.50;;;;;;;23.16;38.34;99410.70;1711125;84;21468;-67
2023/06/28 10:16:36;;;;;;;5.20;1.62;;;;;;;23.26;38.18;99412.76;1711186;84;21057;-68
2023/06/28 10:19:09;;;;;;;3.87;1.45;;;;;;;23.36;38.77;99411.75;1711257;84;21021;-67
2023/06/28 10:21:39;;;;;;;1.82;1.10;;;;;;;23.48;38.55;99413.52;1711226;84;21013;-69
2023/06/28 10:24:09;;;;;;;4.50;1.37;;;;;;;23.59;38.50;99412.80;1711318;84;21001;-68
2023/06/28 10:26:39;;;;;;;5.08;1.40;;;;;;;23.67;38.20;99403.70;1700926;83;21073;-66
2023/06/28 10:29:08;;;;;;;3.05;1.20;;;;;;;23.71;38.47;99400.55;1653234;84;21026;-67
2023/06/28 10:31:37;;;;;;;5.53;1.22;;;;;;;23.81;38.01;99406.51;1700779;84;21049;-67
2023/06/28 10:34:07;;;;;;;3.52;1.20;;;;;;;23.89;36.90;99380.05;1700943;84;21026;-68
2023/06/28 10:36:36;;;;;;;3.65;1.40;;;;;;;23.90;36.08;99411.08;1700747;84;21099;-67
2023/06/28 10:39:09;;;;;;;2.05;1.17;;;;;;;23.86;36.53;99414.23;1700965;84;21001;-67
2023/06/28 10:41:38;;;;;;;1.85;0.82;;;;;;;23.94;36.75;99403.72;1700882;84;21034;-68
2023/06/28 10:44:08;;;;;;;2.35;1.05;;;;;;;24.01;35.95;99394.91;1700900;84;21045;-66
2023/06/28 10:46:37;;;;;;;2.98;1.10;;;;;;;23.97;35.83;99391.08;1700937;84;21108;-68
2023/06/28 10:49:07;;;;;;;2.67;1.00;;;;;;;23.89;35.53;99403.83;1654316;84;21060;-67
2023/06/28 10:51:36;;;;;;;6.45;1.52;;;;;;;23.87;35.84;99391.28;1703247;84;21017;-68
2023/06/28 10:54:12;;;;;;;2.75;1.00;;;;;;;23.85;35.55;99394.96;1703924;84;21033;-67
2023/06/28 10:56:51;;;;;;;2.85;1.00;;;;;;;23.84;36.17;99394.13;1703289;84;21069;-66
2023/06/28 10:59:20;;;;;;;4.53;1.20;;;;;;;23.87;36.49;99395.48;1701655;84;21077;-66
2023/06/28 11:01:52;;;;;;;2.05;1.25;;;;;;;23.93;35.37;99385.28;1701103;84;21061;-66
2023/06/28 11:04:25;;;;;;;4.08;1.27;;;;;;;23.94;35.78;99400.92;1700666;84;21045;-63
2023/06/28 11:07:17;;;;;;;2.65;1.25;;;;;;;23.91;35.18;99400.72;1613557;88;21155;-67
2023/06/28 11:10:10;;;;;;;4.03;1.17;;;;;;;23.77;35.02;99402.67;1633745;87;21593;-66
2023/06/28 11:12:41;;;;;;;6.78;2.00;;;;;;;23.70;35.58;99398.31;1615058;89;21269;-69
2023/06/28 11:15:13;;;;;;;2.90;1.25;;;;;;;23.66;35.21;99387.48;1633794;88;21547;-70
2023/06/28 11:17:42;;;;;;;2.30;1.20;;;;;;;23.58;35.26;99386.80;1615357;89;21051;-67
2023/06/28 11:20:13;;;;;;;4.30;1.55;;;;;;;23.51;35.24;99384.95;1633581;86;21584;-68
2023/06/28 11:22:53;;;;;;;5.90;1.80;;;;;;;23.47;35.09;99382.51;1615010;89;21055;-67
2023/06/28 11:25:28;;;;;;;36.53;7.03;;;;;;;23.44;35.41;99369.14;1695303;81;21439;-67
2023/06/28 11:27:58;;;;;;;15.85;4.28;;;;;;;23.47;35.57;99367.13;1635672;87;21095;-68
2023/06/28 11:30:47;;;;;;;4.60;1.20;;;;;;;23.51;35.79;99373.77;1657105;86;21089;-61
2023/06/28 11:33:41;;;;;;;3.60;1.37;;;;;;;23.69;35.86;99367.29;1844821;77;22175;-64
2023/06/28 11:36:11;;;;;;;3.00;1.17;;;;;;;23.74;35.52;99364.96;1807280;79;21142;-67
2023/06/28 11:38:44;;;;;;;2.70;1.20;;;;;;;23.85;34.95;99379.58;1783845;79;21126;-65
2023/06/28 11:41:16;;;;;;;3.83;1.20;;;;;;;23.91;34.01;99380.56;1805741;79;21167;-65
2023/06/28 11:43:48;;;;;;;2.70;1.05;;;;;;;23.87;33.90;99375.33;1737872;82;21155;-67
2023/06/28 11:46:20;;;;;;;1.77;1.02;;;;;;;23.83;34.23;99367.86;1804192;79;21092;-66